• Join FlightAware (Why Join?)
  • Login
  • US Flag 
04:16AM EDT


 

Airport Tracker/Info


-or-


 

Live Flight TrackerFlight Track Log ✈ SWA2966 ✈ 22-Jun-2013 ✈ KSEA - KRNO

Flight Track Log - Related Links

Times and Time Zones

All times are in EDT time to prevent confusion due to time zone crossing. See the SWA2966 flight status page for this flight to view local times or setup timezone preferences in your user account.

Time Position Orientation Groundspeed Altitude Reporting Facility
EDT Latitude Longitude Course Direction KTS MPH feet Rate Location/Type
05:11PM 47.4681 -122.3086 358° North 171 197 1,400  Level Seattle Center
05:12PM 47.5064 -122.3106 358° North 199 229 2,700 2,100 Climbing Seattle Center
05:13PM 47.5731 -122.3092 North 242 278 5,100 2,460 Climbing Seattle Center
05:14PM 47.6119 -122.2369 51° Northeast 260 299 7,800 2,520 Climbing Seattle Center
05:15PM 47.5522 -122.1850 150° Southeast 272 313 10,300 2,160 Climbing Seattle Center
05:16PM 47.4614 -122.1644 171° South 332 382 12,300 2,280 Climbing Seattle Center
05:17PM 47.3636 -122.1428 171° South 352 405 15,000 2,520 Climbing Seattle Center
05:18PM 47.2617 -122.1211 172° South 369 425 17,500 2,160 Climbing Seattle Center
05:19PM 47.1622 -122.1019 173° South 382 440 19,400 1,860 Climbing Seattle Center
05:20PM 47.0536 -122.0794 172° South 396 456 21,400 2,040 Climbing Seattle Center
05:21PM 46.9419 -122.0561 172° South 407 468 23,600 1,920 Climbing Seattle Center
05:22PM 46.8039 -122.0294 172° South 420 483 25,400 1,620 Climbing Seattle Center
05:23PM 46.6850 -122.0056 172° South 432 497 27,000 1,500 Climbing Seattle Center
05:24PM 46.5650 -121.9714 169° South 442 509 28,500 1,560 Climbing Seattle Center
05:25PM 46.4467 -121.9242 165° South 444 511 30,200 1,500 Climbing Seattle Center
05:26PM 46.3289 -121.8783 165° South 444 511 31,600 1,320 Climbing Seattle Center
05:27PM 46.2142 -121.8344 165° South 443 510 33,000 1,260 Climbing Seattle Center
05:28PM 46.0981 -121.7892 165° South 437 503 34,200 960 Climbing Seattle Center
05:29PM 45.9806 -121.7458 166° South 437 503 35,000 360 Climbing Seattle Center
05:30PM 45.8381 -121.6903 165° South 443 510 35,000  Level Seattle Center
05:32PM 45.7172 -121.6464 166° South 448 516 35,000  Level Seattle Center
05:33PM 45.5972 -121.6017 165° South 449 517 35,000  Level Seattle Center
05:34PM 45.4764 -121.5569 165° South 450 518 35,000  Level Seattle Center
05:35PM 45.3558 -121.5125 165° South 449 517 35,000  Level Seattle Center
05:36PM 45.2358 -121.4667 165° South 449 517 35,000  Level Seattle Center
05:37PM 45.1153 -121.4231 166° South 450 518 35,000  Level Seattle Center
05:38PM 44.9967 -121.3783 165° South 445 512 35,000  Level Seattle Center
05:39PM 44.8753 -121.3358 166° South 450 518 35,000  Level Seattle Center
05:40PM 44.7317 -121.2831 165° South 447 514 35,000  Level Seattle Center
05:41PM 44.6192 -121.2428 166° South 448 516 35,000  Level Seattle Center
05:42PM 44.4983 -121.1997 166° South 448 516 35,000  Level Seattle Center
05:43PM 44.3769 -121.1572 166° South 448 516 35,000  Level Seattle Center
05:44PM 44.2500 -121.1106 165° South 448 516 35,000  Level Seattle Center
05:45PM 44.1272 -121.0681 166° South 455 524 35,000  Level Seattle Center
05:46PM 44.0081 -121.0264 166° South 447 514 35,000  Level Seattle Center
05:47PM 43.8878 -120.9819 165° South 448 516 35,000  Level Seattle Center
05:48PM 43.7681 -120.9408 166° South 447 514 35,000  Level Seattle Center
05:49PM 43.6236 -120.8917 166° South 446 513 35,000  Level Seattle Center
05:50PM 43.5136 -120.8553 167° South 450 518 35,000  Level Seattle Center
05:51PM 43.3922 -120.8128 166° South 451 519 35,000  Level Seattle Center
05:52PM 43.2708 -120.7703 166° South 450 518 35,000  Level Seattle Center
05:53PM 43.1500 -120.7308 167° South 448 516 35,000  Level Seattle Center
05:54PM 43.0067 -120.6808 166° South 443 510 35,000  Level Seattle Center
05:55PM 42.8878 -120.6400 166° South 440 506 35,000 -480 Level Seattle Center
05:56PM 42.7694 -120.6011 166° South 438 504 34,100 -1,020 Descending Seattle Center
05:57PM 42.6519 -120.5622 166° South 435 501 33,000 -540 Descending Seattle Center
05:58PM 42.5353 -120.5233 166° South 432 497 33,000  Level Seattle Center
05:59PM 42.4172 -120.4861 167° South 435 501 33,000  Level Seattle Center
06:00PM 42.3006 -120.4511 167° South 431 496 33,000  Level Seattle Center
06:01PM 42.1847 -120.4161 167° South 430 495 33,000  Level Seattle Center
06:02PM 42.0661 -120.3817 168° South 434 499 33,000  Level Seattle Center
06:03PM 41.9508 -120.3467 167° South 430 495 33,000  Level Seattle Center
06:04PM 41.8325 -120.3114 167° South 433 498 33,000  Level Seattle Center
06:05PM 41.7133 -120.2767 168° South 435 501 33,000  Level Seattle Center
06:06PM 41.5914 -120.2425 168° South 444 511 33,000  Level Seattle Center
06:07PM 41.4469 -120.2008 168° South 442 509 33,000  Level Seattle Center
06:08PM 41.3269 -120.1656 168° South 442 509 33,000 -240 Level Seattle Center
06:09PM 41.2061 -120.1289 167° South 443 510 32,600 -780 Descending Seattle Center
06:10PM 41.0861 -120.0961 168° South 442 509 31,500 -1,080 Descending Seattle Center
06:11PM 40.9681 -120.0614 167° South 436 502 30,500 -780 Descending Seattle Center
06:12PM 40.8508 -120.0275 168° South 433 498 30,000 -300 Descending Seattle Center
06:13PM 40.7583 -119.9978 166° South 434 499 30,000 -840 Level Oakland Center
06:14PM 40.6358 -119.9642 168° South 447 514 28,500 -2,040 Descending Oakland Center
06:15PM 40.5003 -119.9250 168° South 448 516 25,900 -2,460 Descending Oakland Center
06:16PM 40.3836 -119.8933 168° South 431 496 23,500 -2,340 Descending Oakland Center
06:17PM 40.2719 -119.8625 168° South 415 478 21,200 -2,160 Descending Oakland Center
06:18PM 40.1650 -119.8331 168° South 398 458 19,100 -1,920 Descending Oakland Center
06:19PM 40.0617 -119.8025 167° South 388 447 17,300 -1,920 Descending Oakland Center
06:20PM 39.9508 -119.7739 169° South 357 411 15,300 -1,980 Descending Oakland Center
06:21PM 39.8675 -119.7456 165° South 326 375 13,300 -1,920 Descending Oakland Center
06:22PM 39.7839 -119.7278 171° South 320 368 11,400 -1,620 Descending Oakland Center
06:23PM 39.7231 -119.7786 213° Southwest 271 312 10,000 -1,440 Descending Oakland Center
06:24PM 39.6739 -119.8219 214° Southwest 236 272 8,500 -1,500 Descending Oakland Center
06:25PM 39.6167 -119.7833 153° Southeast 200 230 6,900 -1,440 Descending Northern Cal TRACON
06:26PM 39.5667 -119.7667 166° South 182 209 5,700 -1,080 Descending Northern Cal TRACON
06:27PM 39.5167 -119.7667 180° South 163 188 4,800 -840 Descending Northern Cal TRACON
06:29PM 39.4991 -119.7681 247° West  Level Estimated
06:36PM 39.4991 -119.7681 247° West  Level Estimated
06:37PM 39.4991 -119.7681 247° West  Level Estimated